sensor_id;sensor_type;location;lat;lon;timestamp;temperature;humidity
39849;DHT22;25518;47.878;15.914;2023-12-07T00:02:49;1.30;99.90
39849;DHT22;25518;47.878;15.914;2023-12-07T00:05:40;1.30;99.90
39849;DHT22;25518;47.878;15.914;2023-12-07T00:08:32;1.30;99.90
39849;DHT22;25518;47.878;15.914;2023-12-07T00:11:23;1.40;99.90
39849;DHT22;25518;47.878;15.914;2023-12-07T00:14:15;1.30;99.90
39849;DHT22;25518;47.878;15.914;2023-12-07T00:17:06;1.30;99.90
39849;DHT22;25518;47.878;15.914;2023-12-07T00:19:58;1.40;99.90
39849;DHT22;25518;47.878;15.914;2023-12-07T00:22:49;1.40;99.90
39849;DHT22;25518;47.878;15.914;2023-12-07T00:25:40;1.30;99.90
39849;DHT22;25518;47.878;15.914;2023-12-07T00:28:32;1.30;99.90
39849;DHT22;25518;47.878;15.914;2023-12-07T00:31:23;1.30;99.90
39849;DHT22;25518;47.878;15.914;2023-12-07T00:34:14;1.40;99.90
39849;DHT22;25518;47.878;15.914;2023-12-07T00:37:08;1.40;99.90
39849;DHT22;25518;47.878;15.914;2023-12-07T00:39:59;1.30;99.90
39849;DHT22;25518;47.878;15.914;2023-12-07T00:42:52;1.30;99.90
39849;DHT22;25518;47.878;15.914;2023-12-07T00:45:44;1.20;99.90
39849;DHT22;25518;47.878;15.914;2023-12-07T00:48:35;1.20;99.90
39849;DHT22;25518;47.878;15.914;2023-12-07T00:51:26;1.20;99.90
39849;DHT22;25518;47.878;15.914;2023-12-07T00:54:18;1.30;99.90
39849;DHT22;25518;47.878;15.914;2023-12-07T00:57:09;1.30;99.90
39849;DHT22;25518;47.878;15.914;2023-12-07T01:00:00;1.20;99.90
39849;DHT22;25518;47.878;15.914;2023-12-07T01:02:52;1.50;99.90
39849;DHT22;25518;47.878;15.914;2023-12-07T01:05:43;1.50;99.90
39849;DHT22;25518;47.878;15.914;2023-12-07T01:08:34;1.50;99.90
39849;DHT22;25518;47.878;15.914;2023-12-07T01:11:26;1.40;99.90
39849;DHT22;25518;47.878;15.914;2023-12-07T01:14:18;1.30;99.90
39849;DHT22;25518;47.878;15.914;2023-12-07T01:17:09;1.50;99.90
39849;DHT22;25518;47.878;15.914;2023-12-07T01:20:00;1.60;99.90
39849;DHT22;25518;47.878;15.914;2023-12-07T01:22:55;1.60;99.90
39849;DHT22;25518;47.878;15.914;2023-12-07T01:25:46;1.40;99.90
39849;DHT22;25518;47.878;15.914;2023-12-07T01:28:37;1.50;99.90
39849;DHT22;25518;47.878;15.914;2023-12-07T01:31:30;1.40;99.90
39849;DHT22;25518;47.878;15.914;2023-12-07T01:34:21;1.60;99.90
39849;DHT22;25518;47.878;15.914;2023-12-07T01:37:13;1.50;99.90
39849;DHT22;25518;47.878;15.914;2023-12-07T01:40:05;1.50;99.90
39849;DHT22;25518;47.878;15.914;2023-12-07T01:43:00;1.40;99.90
39849;DHT22;25518;47.878;15.914;2023-12-07T01:45:52;1.40;99.90
39849;DHT22;25518;47.878;15.914;2023-12-07T01:48:45;1.50;99.90
39849;DHT22;25518;47.878;15.914;2023-12-07T01:51:40;1.50;99.90
39849;DHT22;25518;47.878;15.914;2023-12-07T01:54:32;1.40;99.90
39849;DHT22;25518;47.878;15.914;2023-12-07T01:57:24;1.40;99.90
39849;DHT22;25518;47.878;15.914;2023-12-07T02:00:16;1.40;99.90
39849;DHT22;25518;47.878;15.914;2023-12-07T02:03:08;1.40;99.90
39849;DHT22;25518;47.878;15.914;2023-12-07T02:06:01;1.40;99.90
39849;DHT22;25518;47.878;15.914;2023-12-07T02:08:53;1.40;99.90
39849;DHT22;25518;47.878;15.914;2023-12-07T02:11:45;1.40;99.90
39849;DHT22;25518;47.878;15.914;2023-12-07T02:14:36;1.30;99.90
39849;DHT22;25518;47.878;15.914;2023-12-07T02:17:34;1.30;99.90
39849;DHT22;25518;47.878;15.914;2023-12-07T02:23:42;1.40;99.90
39849;DHT22;25518;47.878;15.914;2023-12-07T02:26:35;1.40;99.90
39849;DHT22;25518;47.878;15.914;2023-12-07T02:29:28;1.50;99.90
39849;DHT22;25518;47.878;15.914;2023-12-07T02:32:20;1.50;99.90
39849;DHT22;25518;47.878;15.914;2023-12-07T02:35:12;1.50;99.90
39849;DHT22;25518;47.878;15.914;2023-12-07T02:38:06;1.40;99.90
39849;DHT22;25518;47.878;15.914;2023-12-07T02:40:59;1.30;99.90
39849;DHT22;25518;47.878;15.914;2023-12-07T02:43:52;1.40;99.90
39849;DHT22;25518;47.878;15.914;2023-12-07T02:46:45;1.40;99.90
39849;DHT22;25518;47.878;15.914;2023-12-07T02:49:36;1.50;99.90
39849;DHT22;25518;47.878;15.914;2023-12-07T02:52:27;1.40;99.90
39849;DHT22;25518;47.878;15.914;2023-12-07T02:55:19;1.40;99.90
39849;DHT22;25518;47.878;15.914;2023-12-07T02:58:11;1.40;99.90
39849;DHT22;25518;47.878;15.914;2023-12-07T03:01:02;1.40;99.90
39849;DHT22;25518;47.878;15.914;2023-12-07T03:03:54;1.40;99.90
39849;DHT22;25518;47.878;15.914;2023-12-07T03:06:45;1.40;99.90
39849;DHT22;25518;47.878;15.914;2023-12-07T03:09:36;1.40;99.90
39849;DHT22;25518;47.878;15.914;2023-12-07T03:12:27;1.40;99.90
39849;DHT22;25518;47.878;15.914;2023-12-07T03:15:19;1.50;99.90
39849;DHT22;25518;47.878;15.914;2023-12-07T03:18:10;1.50;99.90
39849;DHT22;25518;47.878;15.914;2023-12-07T03:21:02;1.40;99.90
39849;DHT22;25518;47.878;15.914;2023-12-07T03:23:54;1.40;99.90
39849;DHT22;25518;47.878;15.914;2023-12-07T03:26:45;1.40;99.90
39849;DHT22;25518;47.878;15.914;2023-12-07T03:29:37;1.30;99.90
39849;DHT22;25518;47.878;15.914;2023-12-07T03:32:28;1.20;99.90
39849;DHT22;25518;47.878;15.914;2023-12-07T03:35:20;1.40;99.90
39849;DHT22;25518;47.878;15.914;2023-12-07T03:38:11;1.40;99.90
39849;DHT22;25518;47.878;15.914;2023-12-07T03:41:03;1.30;99.90
39849;DHT22;25518;47.878;15.914;2023-12-07T03:43:55;1.40;99.90
39849;DHT22;25518;47.878;15.914;2023-12-07T03:46:46;1.40;99.90
39849;DHT22;25518;47.878;15.914;2023-12-07T03:49:38;1.30;99.90
39849;DHT22;25518;47.878;15.914;2023-12-07T03:52:29;1.20;99.90
39849;DHT22;25518;47.878;15.914;2023-12-07T03:55:21;1.40;99.90
39849;DHT22;25518;47.878;15.914;2023-12-07T03:58:12;1.40;99.90
39849;DHT22;25518;47.878;15.914;2023-12-07T04:01:04;1.40;99.90
39849;DHT22;25518;47.878;15.914;2023-12-07T04:03:56;1.30;99.90
39849;DHT22;25518;47.878;15.914;2023-12-07T04:06:50;1.30;99.90
39849;DHT22;25518;47.878;15.914;2023-12-07T04:09:41;1.40;99.90
39849;DHT22;25518;47.878;15.914;2023-12-07T04:12:32;1.40;99.90
39849;DHT22;25518;47.878;15.914;2023-12-07T04:15:24;1.30;99.90
39849;DHT22;25518;47.878;15.914;2023-12-07T04:18:15;1.40;99.90
39849;DHT22;25518;47.878;15.914;2023-12-07T04:21:07;1.30;99.90
39849;DHT22;25518;47.878;15.914;2023-12-07T04:23:58;1.40;99.90
39849;DHT22;25518;47.878;15.914;2023-12-07T04:26:49;1.40;99.90
39849;DHT22;25518;47.878;15.914;2023-12-07T04:29:41;1.40;99.90
39849;DHT22;25518;47.878;15.914;2023-12-07T04:32:32;1.40;99.90
39849;DHT22;25518;47.878;15.914;2023-12-07T04:35:23;1.60;99.90
39849;DHT22;25518;47.878;15.914;2023-12-07T04:38:15;1.70;99.90
39849;DHT22;25518;47.878;15.914;2023-12-07T04:41:06;1.60;99.90
39849;DHT22;25518;47.878;15.914;2023-12-07T04:43:58;1.50;99.90
39849;DHT22;25518;47.878;15.914;2023-12-07T04:46:49;1.40;99.90
39849;DHT22;25518;47.878;15.914;2023-12-07T04:49:41;1.50;99.90
39849;DHT22;25518;47.878;15.914;2023-12-07T04:52:32;1.60;99.90
39849;DHT22;25518;47.878;15.914;2023-12-07T04:55:23;1.50;99.90
39849;DHT22;25518;47.878;15.914;2023-12-07T04:58:15;1.50;99.90
39849;DHT22;25518;47.878;15.914;2023-12-07T05:01:06;1.50;99.90
39849;DHT22;25518;47.878;15.914;2023-12-07T05:03:58;1.50;99.90
39849;DHT22;25518;47.878;15.914;2023-12-07T05:06:49;1.60;99.90
39849;DHT22;25518;47.878;15.914;2023-12-07T05:09:40;1.60;99.90
39849;DHT22;25518;47.878;15.914;2023-12-07T05:12:34;1.40;99.90
39849;DHT22;25518;47.878;15.914;2023-12-07T05:15:26;1.40;99.90
39849;DHT22;25518;47.878;15.914;2023-12-07T05:18:18;1.40;99.90
39849;DHT22;25518;47.878;15.914;2023-12-07T05:21:10;1.50;99.90
39849;DHT22;25518;47.878;15.914;2023-12-07T05:24:01;1.40;99.90
39849;DHT22;25518;47.878;15.914;2023-12-07T05:26:52;1.60;99.90
39849;DHT22;25518;47.878;15.914;2023-12-07T05:29:44;1.70;99.90
39849;DHT22;25518;47.878;15.914;2023-12-07T05:32:35;1.40;99.90
39849;DHT22;25518;47.878;15.914;2023-12-07T05:35:26;1.50;99.90
39849;DHT22;25518;47.878;15.914;2023-12-07T05:38:18;1.40;99.90
39849;DHT22;25518;47.878;15.914;2023-12-07T05:41:09;1.40;99.90
39849;DHT22;25518;47.878;15.914;2023-12-07T05:44:00;1.50;99.90
39849;DHT22;25518;47.878;15.914;2023-12-07T05:46:52;1.50;99.90
39849;DHT22;25518;47.878;15.914;2023-12-07T05:49:43;1.50;99.90
39849;DHT22;25518;47.878;15.914;2023-12-07T05:52:35;1.50;99.90
39849;DHT22;25518;47.878;15.914;2023-12-07T05:55:26;1.40;99.90
39849;DHT22;25518;47.878;15.914;2023-12-07T05:58:18;1.40;99.90
39849;DHT22;25518;47.878;15.914;2023-12-07T06:01:09;1.40;99.90
39849;DHT22;25518;47.878;15.914;2023-12-07T06:04:00;1.30;99.90
39849;DHT22;25518;47.878;15.914;2023-12-07T06:06:52;1.30;99.90
39849;DHT22;25518;47.878;15.914;2023-12-07T06:09:43;1.40;99.90
39849;DHT22;25518;47.878;15.914;2023-12-07T06:12:34;1.30;99.90
39849;DHT22;25518;47.878;15.914;2023-12-07T06:15:26;1.30;99.90
39849;DHT22;25518;47.878;15.914;2023-12-07T06:18:18;1.30;99.90
39849;DHT22;25518;47.878;15.914;2023-12-07T06:21:11;1.30;99.90
39849;DHT22;25518;47.878;15.914;2023-12-07T06:24:03;1.30;99.90
39849;DHT22;25518;47.878;15.914;2023-12-07T06:26:55;1.20;99.90
39849;DHT22;25518;47.878;15.914;2023-12-07T06:29:46;1.30;99.90
39849;DHT22;25518;47.878;15.914;2023-12-07T06:32:38;1.30;99.90
39849;DHT22;25518;47.878;15.914;2023-12-07T06:35:29;1.30;99.90
39849;DHT22;25518;47.878;15.914;2023-12-07T06:38:21;1.30;99.90
39849;DHT22;25518;47.878;15.914;2023-12-07T06:44:05;1.40;99.90
39849;DHT22;25518;47.878;15.914;2023-12-07T06:46:57;1.30;99.90
39849;DHT22;25518;47.878;15.914;2023-12-07T06:49:48;1.30;99.90
39849;DHT22;25518;47.878;15.914;2023-12-07T06:52:40;1.30;99.90
39849;DHT22;25518;47.878;15.914;2023-12-07T06:55:32;1.30;99.90
39849;DHT22;25518;47.878;15.914;2023-12-07T06:58:23;1.30;99.90
39849;DHT22;25518;47.878;15.914;2023-12-07T07:01:15;1.30;99.90
39849;DHT22;25518;47.878;15.914;2023-12-07T07:04:06;1.30;99.90
39849;DHT22;25518;47.878;15.914;2023-12-07T07:06:58;1.30;99.90
39849;DHT22;25518;47.878;15.914;2023-12-07T07:09:49;1.30;99.90
39849;DHT22;25518;47.878;15.914;2023-12-07T07:12:40;1.40;99.90
39849;DHT22;25518;47.878;15.914;2023-12-07T07:15:32;1.30;99.90
39849;DHT22;25518;47.878;15.914;2023-12-07T07:18:24;-0.10;99.90
39849;DHT22;25518;47.878;15.914;2023-12-07T07:21:16;1.30;99.90
39849;DHT22;25518;47.878;15.914;2023-12-07T07:24:07;1.30;99.90
39849;DHT22;25518;47.878;15.914;2023-12-07T07:26:59;1.40;99.90
39849;DHT22;25518;47.878;15.914;2023-12-07T07:29:50;1.30;99.90
39849;DHT22;25518;47.878;15.914;2023-12-07T07:32:41;1.30;99.90
39849;DHT22;25518;47.878;15.914;2023-12-07T07:35:33;1.30;99.90
39849;DHT22;25518;47.878;15.914;2023-12-07T07:38:24;1.40;99.90
39849;DHT22;25518;47.878;15.914;2023-12-07T07:41:15;1.40;99.90
39849;DHT22;25518;47.878;15.914;2023-12-07T07:44:07;1.40;99.90
39849;DHT22;25518;47.878;15.914;2023-12-07T07:46:58;1.30;99.90
39849;DHT22;25518;47.878;15.914;2023-12-07T07:49:49;1.30;99.90
39849;DHT22;25518;47.878;15.914;2023-12-07T07:52:41;1.30;99.90
39849;DHT22;25518;47.878;15.914;2023-12-07T07:55:32;1.30;99.90
39849;DHT22;25518;47.878;15.914;2023-12-07T07:58:23;1.40;99.90
39849;DHT22;25518;47.878;15.914;2023-12-07T08:01:15;1.40;99.90
39849;DHT22;25518;47.878;15.914;2023-12-07T08:04:06;1.40;99.90
39849;DHT22;25518;47.878;15.914;2023-12-07T08:06:58;1.40;99.90
39849;DHT22;25518;47.878;15.914;2023-12-07T08:09:50;1.50;99.90
39849;DHT22;25518;47.878;15.914;2023-12-07T08:12:41;1.50;99.90
39849;DHT22;25518;47.878;15.914;2023-12-07T08:15:33;1.50;99.90
39849;DHT22;25518;47.878;15.914;2023-12-07T08:18:25;1.60;99.90
39849;DHT22;25518;47.878;15.914;2023-12-07T08:21:24;1.60;99.90
39849;DHT22;25518;47.878;15.914;2023-12-07T08:24:16;1.50;99.90
39849;DHT22;25518;47.878;15.914;2023-12-07T08:27:07;1.50;99.90
39849;DHT22;25518;47.878;15.914;2023-12-07T08:29:59;1.50;99.90
39849;DHT22;25518;47.878;15.914;2023-12-07T08:32:50;1.50;99.90
39849;DHT22;25518;47.878;15.914;2023-12-07T08:35:42;1.50;99.90
39849;DHT22;25518;47.878;15.914;2023-12-07T08:38:33;1.50;99.90
39849;DHT22;25518;47.878;15.914;2023-12-07T08:41:24;1.40;99.90
39849;DHT22;25518;47.878;15.914;2023-12-07T08:44:16;1.40;99.90
39849;DHT22;25518;47.878;15.914;2023-12-07T08:47:08;1.40;99.90
39849;DHT22;25518;47.878;15.914;2023-12-07T08:49:59;1.40;99.90
39849;DHT22;25518;47.878;15.914;2023-12-07T08:52:50;1.40;99.90
39849;DHT22;25518;47.878;15.914;2023-12-07T08:55:42;1.40;99.90
39849;DHT22;25518;47.878;15.914;2023-12-07T08:58:33;1.50;99.90
39849;DHT22;25518;47.878;15.914;2023-12-07T09:01:24;1.30;99.90
39849;DHT22;25518;47.878;15.914;2023-12-07T09:04:17;1.40;99.90
39849;DHT22;25518;47.878;15.914;2023-12-07T09:07:08;1.40;99.90
39849;DHT22;25518;47.878;15.914;2023-12-07T09:10:00;1.40;99.90
39849;DHT22;25518;47.878;15.914;2023-12-07T09:12:51;1.40;99.90
39849;DHT22;25518;47.878;15.914;2023-12-07T09:15:43;1.60;99.90
39849;DHT22;25518;47.878;15.914;2023-12-07T09:18:34;1.60;99.90
39849;DHT22;25518;47.878;15.914;2023-12-07T09:21:27;1.60;99.90
39849;DHT22;25518;47.878;15.914;2023-12-07T09:24:18;1.60;99.90
39849;DHT22;25518;47.878;15.914;2023-12-07T09:27:10;1.70;99.90
39849;DHT22;25518;47.878;15.914;2023-12-07T09:30:02;1.70;99.90
39849;DHT22;25518;47.878;15.914;2023-12-07T09:32:53;1.70;99.90
39849;DHT22;25518;47.878;15.914;2023-12-07T09:35:45;1.60;99.90
39849;DHT22;25518;47.878;15.914;2023-12-07T09:38:36;1.70;99.90
39849;DHT22;25518;47.878;15.914;2023-12-07T09:41:29;1.70;99.90
39849;DHT22;25518;47.878;15.914;2023-12-07T09:44:20;1.70;99.90
39849;DHT22;25518;47.878;15.914;2023-12-07T09:47:12;1.70;99.90
39849;DHT22;25518;47.878;15.914;2023-12-07T09:50:06;1.80;99.90
39849;DHT22;25518;47.878;15.914;2023-12-07T09:52:59;1.70;99.90
39849;DHT22;25518;47.878;15.914;2023-12-07T09:55:50;1.70;99.90
39849;DHT22;25518;47.878;15.914;2023-12-07T09:58:42;1.80;99.90
39849;DHT22;25518;47.878;15.914;2023-12-07T10:01:34;1.80;99.90
39849;DHT22;25518;47.878;15.914;2023-12-07T10:04:26;1.80;99.90
39849;DHT22;25518;47.878;15.914;2023-12-07T10:07:32;1.80;99.90
39849;DHT22;25518;47.878;15.914;2023-12-07T10:10:25;1.90;99.90
39849;DHT22;25518;47.878;15.914;2023-12-07T10:13:17;1.90;99.90
39849;DHT22;25518;47.878;15.914;2023-12-07T10:16:10;2.00;99.90
39849;DHT22;25518;47.878;15.914;2023-12-07T10:19:13;2.00;99.90
39849;DHT22;25518;47.878;15.914;2023-12-07T10:22:13;2.10;99.90
39849;DHT22;25518;47.878;15.914;2023-12-07T10:25:07;2.10;99.90
39849;DHT22;25518;47.878;15.914;2023-12-07T10:27:58;2.00;99.90
39849;DHT22;25518;47.878;15.914;2023-12-07T10:30:51;2.00;99.90
39849;DHT22;25518;47.878;15.914;2023-12-07T10:33:47;1.90;99.90
39849;DHT22;25518;47.878;15.914;2023-12-07T10:36:39;2.00;99.90
39849;DHT22;25518;47.878;15.914;2023-12-07T10:39:30;2.00;99.90
39849;DHT22;25518;47.878;15.914;2023-12-07T10:42:24;2.10;99.90
39849;DHT22;25518;47.878;15.914;2023-12-07T10:45:17;2.00;99.90
39849;DHT22;25518;47.878;15.914;2023-12-07T10:48:10;1.90;99.90
39849;DHT22;25518;47.878;15.914;2023-12-07T10:51:07;2.00;99.90
39849;DHT22;25518;47.878;15.914;2023-12-07T10:54:03;2.00;99.90
39849;DHT22;25518;47.878;15.914;2023-12-07T10:56:56;2.10;99.90
39849;DHT22;25518;47.878;15.914;2023-12-07T10:59:48;2.10;99.90
39849;DHT22;25518;47.878;15.914;2023-12-07T11:02:43;2.00;99.90
39849;DHT22;25518;47.878;15.914;2023-12-07T11:05:35;1.90;99.90
39849;DHT22;25518;47.878;15.914;2023-12-07T11:08:28;2.10;99.90
39849;DHT22;25518;47.878;15.914;2023-12-07T11:14:19;2.10;99.90
39849;DHT22;25518;47.878;15.914;2023-12-07T11:17:11;2.00;99.90
39849;DHT22;25518;47.878;15.914;2023-12-07T11:20:03;2.10;99.90
39849;DHT22;25518;47.878;15.914;2023-12-07T11:22:56;2.20;99.90
39849;DHT22;25518;47.878;15.914;2023-12-07T11:25:49;2.20;99.90
39849;DHT22;25518;47.878;15.914;2023-12-07T11:28:41;2.20;99.90
39849;DHT22;25518;47.878;15.914;2023-12-07T11:31:33;2.30;99.90
39849;DHT22;25518;47.878;15.914;2023-12-07T11:34:42;2.40;99.90
39849;DHT22;25518;47.878;15.914;2023-12-07T11:38:09;2.50;99.90
39849;DHT22;25518;47.878;15.914;2023-12-07T11:41:03;2.50;99.90
39849;DHT22;25518;47.878;15.914;2023-12-07T11:43:58;2.40;99.90
39849;DHT22;25518;47.878;15.914;2023-12-07T11:46:49;2.60;99.90
39849;DHT22;25518;47.878;15.914;2023-12-07T11:49:41;2.50;99.90
39849;DHT22;25518;47.878;15.914;2023-12-07T11:52:32;2.50;99.90
39849;DHT22;25518;47.878;15.914;2023-12-07T11:55:23;2.50;99.90
39849;DHT22;25518;47.878;15.914;2023-12-07T11:58:15;2.60;99.90
39849;DHT22;25518;47.878;15.914;2023-12-07T12:01:07;2.60;99.90
39849;DHT22;25518;47.878;15.914;2023-12-07T12:03:59;2.70;99.90
39849;DHT22;25518;47.878;15.914;2023-12-07T12:06:50;2.60;99.90
39849;DHT22;25518;47.878;15.914;2023-12-07T12:09:42;2.50;99.90
39849;DHT22;25518;47.878;15.914;2023-12-07T12:12:33;2.50;99.90
39849;DHT22;25518;47.878;15.914;2023-12-07T12:15:25;2.40;99.90
39849;DHT22;25518;47.878;15.914;2023-12-07T12:18:17;2.40;99.90
39849;DHT22;25518;47.878;15.914;2023-12-07T12:21:08;2.50;99.90
39849;DHT22;25518;47.878;15.914;2023-12-07T12:24:01;2.40;99.90
39849;DHT22;25518;47.878;15.914;2023-12-07T12:26:52;2.40;99.90
39849;DHT22;25518;47.878;15.914;2023-12-07T12:29:43;2.40;99.90
39849;DHT22;25518;47.878;15.914;2023-12-07T12:32:51;2.50;99.90
39849;DHT22;25518;47.878;15.914;2023-12-07T12:35:42;2.40;99.90
39849;DHT22;25518;47.878;15.914;2023-12-07T12:38:36;2.40;99.90
39849;DHT22;25518;47.878;15.914;2023-12-07T12:41:27;2.30;99.90
39849;DHT22;25518;47.878;15.914;2023-12-07T12:44:22;2.30;99.90
39849;DHT22;25518;47.878;15.914;2023-12-07T12:47:14;2.30;99.90
39849;DHT22;25518;47.878;15.914;2023-12-07T12:50:06;2.30;99.90
39849;DHT22;25518;47.878;15.914;2023-12-07T12:52:59;2.30;99.90
39849;DHT22;25518;47.878;15.914;2023-12-07T12:55:53;2.30;99.90
39849;DHT22;25518;47.878;15.914;2023-12-07T12:58:44;2.30;99.90
39849;DHT22;25518;47.878;15.914;2023-12-07T13:01:36;2.30;99.90
39849;DHT22;25518;47.878;15.914;2023-12-07T13:04:27;2.10;99.90
39849;DHT22;25518;47.878;15.914;2023-12-07T13:07:19;2.10;99.90
39849;DHT22;25518;47.878;15.914;2023-12-07T13:10:10;2.10;99.90
39849;DHT22;25518;47.878;15.914;2023-12-07T13:13:02;2.20;99.90
39849;DHT22;25518;47.878;15.914;2023-12-07T13:15:54;2.10;99.90
39849;DHT22;25518;47.878;15.914;2023-12-07T13:18:46;2.10;99.90
39849;DHT22;25518;47.878;15.914;2023-12-07T13:21:37;1.90;99.90
39849;DHT22;25518;47.878;15.914;2023-12-07T13:24:29;1.90;99.90
39849;DHT22;25518;47.878;15.914;2023-12-07T13:27:21;1.90;99.90
39849;DHT22;25518;47.878;15.914;2023-12-07T13:30:12;1.90;99.90
39849;DHT22;25518;47.878;15.914;2023-12-07T13:33:04;2.00;99.90
39849;DHT22;25518;47.878;15.914;2023-12-07T13:35:56;2.10;99.90
39849;DHT22;25518;47.878;15.914;2023-12-07T13:38:47;2.00;99.90
39849;DHT22;25518;47.878;15.914;2023-12-07T13:41:39;2.00;99.90
39849;DHT22;25518;47.878;15.914;2023-12-07T13:44:31;1.80;99.90
39849;DHT22;25518;47.878;15.914;2023-12-07T13:47:24;1.90;99.90
39849;DHT22;25518;47.878;15.914;2023-12-07T13:50:21;1.90;99.90
39849;DHT22;25518;47.878;15.914;2023-12-07T13:53:13;1.90;99.90
39849;DHT22;25518;47.878;15.914;2023-12-07T13:56:06;1.80;99.90
39849;DHT22;25518;47.878;15.914;2023-12-07T13:58:59;1.80;99.90
39849;DHT22;25518;47.878;15.914;2023-12-07T14:01:50;1.80;99.90
39849;DHT22;25518;47.878;15.914;2023-12-07T14:04:41;1.80;99.90
39849;DHT22;25518;47.878;15.914;2023-12-07T14:07:33;1.60;99.90
39849;DHT22;25518;47.878;15.914;2023-12-07T14:10:25;1.70;99.90
39849;DHT22;25518;47.878;15.914;2023-12-07T14:13:16;1.70;99.90
39849;DHT22;25518;47.878;15.914;2023-12-07T14:16:09;1.70;99.90
39849;DHT22;25518;47.878;15.914;2023-12-07T14:19:00;1.80;99.90
39849;DHT22;25518;47.878;15.914;2023-12-07T14:21:53;1.70;99.90
39849;DHT22;25518;47.878;15.914;2023-12-07T14:24:45;1.70;99.90
39849;DHT22;25518;47.878;15.914;2023-12-07T14:27:38;1.60;99.90
39849;DHT22;25518;47.878;15.914;2023-12-07T14:30:30;1.70;99.90
39849;DHT22;25518;47.878;15.914;2023-12-07T14:33:23;1.70;99.90
39849;DHT22;25518;47.878;15.914;2023-12-07T14:36:14;1.60;99.90
39849;DHT22;25518;47.878;15.914;2023-12-07T14:39:05;1.70;99.90
39849;DHT22;25518;47.878;15.914;2023-12-07T14:41:57;1.60;99.90
39849;DHT22;25518;47.878;15.914;2023-12-07T14:44:49;1.50;99.90
39849;DHT22;25518;47.878;15.914;2023-12-07T14:47:40;1.40;99.90
39849;DHT22;25518;47.878;15.914;2023-12-07T14:50:31;1.30;99.90
39849;DHT22;25518;47.878;15.914;2023-12-07T14:53:24;1.40;99.90
39849;DHT22;25518;47.878;15.914;2023-12-07T14:56:16;1.20;99.90
39849;DHT22;25518;47.878;15.914;2023-12-07T14:59:08;1.10;99.90
39849;DHT22;25518;47.878;15.914;2023-12-07T15:02:02;1.20;99.90
39849;DHT22;25518;47.878;15.914;2023-12-07T15:04:53;1.30;99.90
39849;DHT22;25518;47.878;15.914;2023-12-07T15:07:44;1.20;99.90
39849;DHT22;25518;47.878;15.914;2023-12-07T15:10:36;1.20;99.90
39849;DHT22;25518;47.878;15.914;2023-12-07T15:13:28;1.20;99.90
39849;DHT22;25518;47.878;15.914;2023-12-07T15:16:19;1.20;99.90
39849;DHT22;25518;47.878;15.914;2023-12-07T15:19:10;1.20;99.90
39849;DHT22;25518;47.878;15.914;2023-12-07T15:22:02;1.20;99.90
39849;DHT22;25518;47.878;15.914;2023-12-07T15:24:54;1.10;99.90
39849;DHT22;25518;47.878;15.914;2023-12-07T15:27:45;0.90;99.90
39849;DHT22;25518;47.878;15.914;2023-12-07T15:30:38;0.90;99.90
39849;DHT22;25518;47.878;15.914;2023-12-07T15:33:30;1.00;99.90
39849;DHT22;25518;47.878;15.914;2023-12-07T15:36:21;1.00;99.90
39849;DHT22;25518;47.878;15.914;2023-12-07T15:39:13;1.10;99.90
39849;DHT22;25518;47.878;15.914;2023-12-07T15:42:04;1.00;99.90
39849;DHT22;25518;47.878;15.914;2023-12-07T15:44:55;0.90;99.90
39849;DHT22;25518;47.878;15.914;2023-12-07T15:47:47;0.90;99.90
39849;DHT22;25518;47.878;15.914;2023-12-07T15:50:38;1.00;99.90
39849;DHT22;25518;47.878;15.914;2023-12-07T15:53:30;1.00;99.90
39849;DHT22;25518;47.878;15.914;2023-12-07T15:56:21;1.00;99.90
39849;DHT22;25518;47.878;15.914;2023-12-07T15:59:12;1.00;99.90
39849;DHT22;25518;47.878;15.914;2023-12-07T16:02:04;1.10;99.90
39849;DHT22;25518;47.878;15.914;2023-12-07T16:04:55;1.10;99.90
39849;DHT22;25518;47.878;15.914;2023-12-07T16:07:47;2.00;99.90
39849;DHT22;25518;47.878;15.914;2023-12-07T16:10:38;1.10;99.90
39849;DHT22;25518;47.878;15.914;2023-12-07T16:13:29;1.00;99.90
39849;DHT22;25518;47.878;15.914;2023-12-07T16:16:21;1.00;99.90
39849;DHT22;25518;47.878;15.914;2023-12-07T16:19:12;1.00;99.90
39849;DHT22;25518;47.878;15.914;2023-12-07T16:22:04;1.00;99.90
39849;DHT22;25518;47.878;15.914;2023-12-07T16:24:56;0.90;99.90
39849;DHT22;25518;47.878;15.914;2023-12-07T16:27:50;0.80;99.90
39849;DHT22;25518;47.878;15.914;2023-12-07T16:30:41;0.70;99.90
39849;DHT22;25518;47.878;15.914;2023-12-07T16:33:32;0.40;99.90
39849;DHT22;25518;47.878;15.914;2023-12-07T16:36:24;0.40;99.90
39849;DHT22;25518;47.878;15.914;2023-12-07T16:39:16;0.40;99.90
39849;DHT22;25518;47.878;15.914;2023-12-07T16:42:07;0.30;99.90
39849;DHT22;25518;47.878;15.914;2023-12-07T16:44:59;0.30;99.90
39849;DHT22;25518;47.878;15.914;2023-12-07T16:47:50;0.00;99.90
39849;DHT22;25518;47.878;15.914;2023-12-07T16:50:43;0.10;99.90
39849;DHT22;25518;47.878;15.914;2023-12-07T16:53:35;0.00;99.90
39849;DHT22;25518;47.878;15.914;2023-12-07T16:56:26;0.10;99.90
39849;DHT22;25518;47.878;15.914;2023-12-07T16:59:18;0.00;99.90
39849;DHT22;25518;47.878;15.914;2023-12-07T17:02:09;0.00;99.90
39849;DHT22;25518;47.878;15.914;2023-12-07T17:05:01;-0.10;99.90
39849;DHT22;25518;47.878;15.914;2023-12-07T17:07:52;-0.30;99.90
39849;DHT22;25518;47.878;15.914;2023-12-07T17:10:44;-0.60;99.90
39849;DHT22;25518;47.878;15.914;2023-12-07T17:13:35;-0.60;99.90
39849;DHT22;25518;47.878;15.914;2023-12-07T17:16:28;-0.50;99.90
39849;DHT22;25518;47.878;15.914;2023-12-07T17:19:20;-0.40;99.90
39849;DHT22;25518;47.878;15.914;2023-12-07T17:22:12;-0.50;99.90
39849;DHT22;25518;47.878;15.914;2023-12-07T17:25:05;-0.50;99.90
39849;DHT22;25518;47.878;15.914;2023-12-07T17:27:58;-0.40;99.90
39849;DHT22;25518;47.878;15.914;2023-12-07T17:30:50;-0.10;99.90
39849;DHT22;25518;47.878;15.914;2023-12-07T17:33:41;-0.60;99.90
39849;DHT22;25518;47.878;15.914;2023-12-07T17:36:33;-0.60;99.90
39849;DHT22;25518;47.878;15.914;2023-12-07T17:39:24;-0.60;99.90
39849;DHT22;25518;47.878;15.914;2023-12-07T17:42:16;-0.60;99.90
39849;DHT22;25518;47.878;15.914;2023-12-07T17:45:07;-0.50;99.90
39849;DHT22;25518;47.878;15.914;2023-12-07T17:47:59;-0.70;99.90
39849;DHT22;25518;47.878;15.914;2023-12-07T17:50:50;-0.50;99.90
39849;DHT22;25518;47.878;15.914;2023-12-07T17:53:42;-0.60;99.90
39849;DHT22;25518;47.878;15.914;2023-12-07T17:56:33;-0.90;99.90
39849;DHT22;25518;47.878;15.914;2023-12-07T17:59:25;-0.80;99.90
39849;DHT22;25518;47.878;15.914;2023-12-07T18:02:16;-0.70;99.90
39849;DHT22;25518;47.878;15.914;2023-12-07T18:05:07;-1.10;99.90
39849;DHT22;25518;47.878;15.914;2023-12-07T18:07:59;-1.00;99.90
39849;DHT22;25518;47.878;15.914;2023-12-07T18:10:52;-1.10;99.90
39849;DHT22;25518;47.878;15.914;2023-12-07T18:13:44;-1.30;99.90
39849;DHT22;25518;47.878;15.914;2023-12-07T18:16:35;-1.30;99.90